Terminal Aerodrome Forecast
Issued by NWS

Home | Current Version | Previous Version | Graphics & Text | Print | Product List | Glossary On
Versions: 1 2 3 4 5 6 7 8 9 10 11 12 13 14 15
000
FTUS43 KMPX 211120
TAFRWF
TAF
KRWF 211120Z 2112/2212 30010KT 4SM -DZ BR OVC005
     FM211500 30014G22KT P6SM VCSH OVC010
     FM212200 30015G24KT P6SM OVC025
     FM220000 28009KT P6SM SCT025 BKN040
     FM220800 24005KT P6SM BKN070=

USA.gov is the U.S. government's official web portal to all federal, state and local government web resources and services.